Time;durP1;ratioP1;P1;durP2;ratioP2;P2;SDS_P1;SDS_P2;PMS_P1;PMS_P2;Temp;Humidity;BMP_temperature;BMP_pressure;BME280_temperature;BME280_humidity;BME280_pressure;Samples;Min_cycle;Max_cycle;Signal;HPM_P1;HPM_P2
2021/08/10 00:00:36;;;;;;;;;;;;;;;-144.99;100.00;52362.50;5021008;28;20422;-63
2021/08/10 00:03:03;;;;;;;;;;;;;;;-144.99;100.00;52403.25;5022219;28;20438;-61
2021/08/10 00:05:30;;;;;;;;;;;;;;;-144.99;100.00;52366.56;5023146;28;19977;-60
2021/08/10 00:07:57;;;;;;;;;;;;;;;-144.99;100.00;52395.09;5020717;28;19974;-60
2021/08/10 00:10:23;;;;;;;;;;;;;;;-144.99;100.00;52395.09;5020895;28;20184;-60
2021/08/10 00:12:50;;;;;;;;;;;;;;;-144.99;100.00;52391.03;5023861;28;19977;-56
2021/08/10 00:15:16;;;;;;;;;;;;;;;-144.99;100.00;52419.56;5021965;28;19994;-58
2021/08/10 00:17:43;;;;;;;;;;;;;;;-144.99;100.00;52399.19;5026091;28;19982;-58
2021/08/10 00:20:10;;;;;;;;;;;;;;;-144.99;100.00;52372.69;5018998;28;19993;-57
2021/08/10 00:22:38;;;;;;;;;;;;;;;-144.99;100.00;52411.41;4676275;28;9999662;-57
2021/08/10 00:25:05;;;;;;;;;;;;;;;-144.99;100.00;52382.88;5022884;28;19977;-57
2021/08/10 00:27:31;;;;;;;;;;;;;;;-144.99;100.00;52419.56;5022655;28;19974;-57
2021/08/10 00:29:57;;;;;;;;;;;;;;;-144.99;100.00;52419.56;5024619;28;20013;-57
2021/08/10 00:32:24;;;;;;;;;;;;;;;-144.99;100.00;52374.72;5025162;28;19978;-58
2021/08/10 00:34:51;;;;;;;;;;;;;;;-144.99;100.00;52358.41;5026636;28;20005;-57
2021/08/10 00:37:17;;;;;;;;;;;;;;;-144.99;100.00;52395.09;5027208;28;19977;-58
2021/08/10 00:39:45;;;;;;;;;;;;;;;-144.99;100.00;52370.63;5027028;28;20029;-61
2021/08/10 00:42:11;;;;;;;;;;;;;;;-144.99;100.00;52384.91;5023451;28;19984;-61
2021/08/10 00:44:37;;;;;;;;;;;;;;;-144.99;100.00;52403.25;5024584;28;20443;-61
2021/08/10 00:47:04;;;;;;;;;;;;;;;-144.99;100.00;52374.72;5025952;28;19974;-61
2021/08/10 00:49:30;;;;;;;;;;;;;;;-144.99;100.00;52382.88;5026575;28;19951;-58
2021/08/10 00:51:57;;;;;;;;;;;;;;;-144.99;100.00;52407.31;5043796;22;20004;-67
2021/08/10 00:54:24;;;;;;;;;;;;;;;-144.99;100.00;52403.25;5031145;28;19980;-67
2021/08/10 00:56:52;;;;;;;;;;;;;;;-144.99;100.00;52407.31;5033194;28;19984;-67
2021/08/10 00:59:18;;;;;;;;;;;;;;;-144.99;100.00;52382.88;5024749;28;20004;-65
2021/08/10 01:01:45;;;;;;;;;;;;;;;-144.99;100.00;52378.78;5010346;28;20436;-65
2021/08/10 01:04:11;;;;;;;;;;;;;;;-144.99;100.00;52415.47;5010252;28;19979;-65
2021/08/10 01:06:45;;;;;;;;;;;;;;;-144.99;100.00;52391.03;5007479;28;19974;-65
2021/08/10 01:09:12;;;;;;;;;;;;;;;-144.99;100.00;52395.09;5011390;28;19993;-66
2021/08/10 01:11:42;;;;;;;;;;;;;;;-144.99;100.00;52382.88;5002840;28;19982;-66
2021/08/10 01:14:13;;;;;;;;;;;;;;;-144.99;100.00;52419.56;5010816;28;19982;-67
2021/08/10 01:16:41;;;;;;;;;;;;;;;-144.99;100.00;52423.63;5005385;28;19989;-67
2021/08/10 01:19:26;;;;;;;;;;;;;;;-144.99;100.00;52388.97;4996880;28;20001;-67
2021/08/10 01:21:54;;;;;;;;;;;;;;;-144.99;100.00;52413.44;5011121;28;19980;-67
2021/08/10 01:24:23;;;;;;;;;;;;;;;-144.99;100.00;52386.94;5010167;28;19974;-67
2021/08/10 01:26:55;;;;;;;;;;;;;;;-144.99;100.00;52362.50;5012544;28;19973;-67
2021/08/10 01:29:29;;;;;;;;;;;;;;;-144.99;100.00;52386.94;5012337;28;20000;-65
2021/08/10 01:31:58;;;;;;;;;;;;;;;-144.99;100.00;52382.88;5014974;28;20088;-68
2021/08/10 01:34:26;;;;;;;;;;;;;;;-144.99;100.00;52403.25;5017793;28;19978;-67
2021/08/10 01:36:55;;;;;;;;;;;;;;;-144.99;100.00;52419.56;5018535;28;19999;-68
2021/08/10 01:39:22;;;;;;;;;;;;;;;-144.99;100.00;52378.78;5021537;28;19994;-68
2021/08/10 01:41:51;;;;;;;;;;;;;;;-144.99;100.00;52411.41;5019712;28;20503;-68
2021/08/10 01:44:18;;;;;;;;;;;;;;;-144.99;100.00;52399.19;5016496;28;20244;-68
2021/08/10 01:46:46;;;;;;;;;;;;;;;-144.99;100.00;52423.63;5017223;28;19996;-68
2021/08/10 01:49:14;;;;;;;;;;;;;;;-144.99;100.00;52386.94;5019031;28;19998;-69
2021/08/10 01:51:41;;;;;;;;;;;;;;;-144.99;100.00;52378.78;5018183;28;19978;-69
2021/08/10 01:54:09;;;;;;;;;;;;;;;-144.99;100.00;52407.31;5014938;28;20359;-69
2021/08/10 01:56:36;;;;;;;;;;;;;;;-144.99;100.00;52378.78;5016420;28;20021;-69
2021/08/10 01:59:03;;;;;;;;;;;;;;;-144.99;100.00;52395.09;5020454;28;20040;-70
2021/08/10 02:01:29;;;;;;;;;;;;;;;-144.99;100.00;52419.56;5018647;28;20018;-68
2021/08/10 02:03:56;;;;;;;;;;;;;;;-144.99;100.00;52384.91;5011316;28;19984;-64
2021/08/10 02:06:24;;;;;;;;;;;;;;;-144.99;100.00;52407.31;5007194;28;19981;-65
2021/08/10 02:08:52;;;;;;;;;;;;;;;-144.99;100.00;52386.94;5005559;28;19997;-65
2021/08/10 02:11:20;;;;;;;;;;;;;;;-144.99;100.00;52384.91;5007422;28;19978;-64
2021/08/10 02:13:48;;;;;;;;;;;;;;;-144.99;100.00;52386.94;5005890;28;20510;-70
2021/08/10 02:16:14;;;;;;;;;;;;;;;-144.99;100.00;52429.75;5003721;28;20470;-65
2021/08/10 02:18:41;;;;;;;;;;;;;;;-144.99;100.00;52407.31;5007278;28;20122;-65
2021/08/10 02:21:13;;;;;;;;;;;;;;;-144.99;100.00;52401.22;5006311;28;19974;-65
2021/08/10 02:23:41;;;;;;;;;;;;;;;-144.99;100.00;52374.72;5006001;28;19984;-69
2021/08/10 02:26:08;;;;;;;;;;;;;;;-144.99;100.00;52407.31;5004833;28;19953;-69
2021/08/10 02:28:36;;;;;;;;;;;;;;;-144.99;100.00;52386.94;5005231;28;20002;-69
2021/08/10 02:31:03;;;;;;;;;;;;;;;-144.99;100.00;52380.84;5006032;28;19936;-68
2021/08/10 02:33:30;;;;;;;;;;;;;;;-144.99;100.00;52378.78;5006123;28;20448;-68
2021/08/10 02:35:58;;;;;;;;;;;;;;;-144.99;100.00;52378.78;5005445;28;20000;-69
2021/08/10 02:38:26;;;;;;;;;;;;;;;-144.99;100.00;52350.25;5005495;28;19971;-68
2021/08/10 02:40:55;;;;;;;;;;;;;;;-144.99;100.00;52352.28;5007230;28;19984;-69
2021/08/10 02:43:24;;;;;;;;;;;;;;;-144.99;100.00;52376.75;5005070;28;20028;-68
2021/08/10 02:45:51;;;;;;;;;;;;;;;-144.99;100.00;52374.72;5005794;28;19974;-69
2021/08/10 02:48:17;;;;;;;;;;;;;;;-144.99;100.00;52419.56;5005713;28;20355;-68
2021/08/10 02:50:43;;;;;;;;;;;;;;;-144.99;100.00;52407.31;5005705;28;20143;-68
2021/08/10 02:53:10;;;;;;;;;;;;;;;-144.99;100.00;52444.03;5005523;28;19981;-69
2021/08/10 02:55:38;;;;;;;;;;;;;;;-144.99;100.00;52374.72;5008553;28;20016;-70
2021/08/10 02:58:08;;;;;;;;;;;;;;;-144.99;100.00;52431.78;5006714;28;19978;-70
2021/08/10 03:00:36;;;;;;;;;;;;;;;-144.99;100.00;52433.81;5008344;28;19974;-70
2021/08/10 03:03:08;;;;;;;;;;;;;;;-144.99;100.00;52354.34;5007574;28;20555;-70
2021/08/10 03:05:35;;;;;;;;;;;;;;;-144.99;100.00;52399.19;5008403;28;20462;-67
2021/08/10 03:08:01;;;;;;;;;;;;;;;-144.99;100.00;52399.19;5012200;28;19974;-66
2021/08/10 03:10:30;;;;;;;;;;;;;;;-144.99;100.00;52411.41;5009669;28;19989;-70
2021/08/10 03:12:57;;;;;;;;;;;;;;;-144.99;100.00;52370.63;5010355;28;19992;-70
2021/08/10 03:15:26;;;;;;;;;;;;;;;-144.99;100.00;52378.78;5008397;28;20000;-70
2021/08/10 03:17:53;;;;;;;;;;;;;;;-144.99;100.00;52401.22;5009512;28;20358;-70
2021/08/10 03:20:20;;;;;;;;;;;;;;;-144.99;100.00;52399.19;5009614;28;20380;-70
2021/08/10 03:22:48;;;;;;;;;;;;;;;-144.99;100.00;52425.66;5008541;28;20088;-70
2021/08/10 03:25:15;;;;;;;;;;;;;;;-144.99;100.00;52378.78;5008116;28;20407;-70
2021/08/10 03:27:42;;;;;;;;;;;;;;;-144.99;100.00;52366.56;5009770;28;19974;-70
2021/08/10 03:30:09;;;;;;;;;;;;;;;-144.99;100.00;52407.31;5008165;28;20499;-70
2021/08/10 03:32:37;;;;;;;;;;;;;;;-144.99;100.00;52419.56;5009055;28;19980;-69
2021/08/10 03:35:04;;;;;;;;;;;;;;;-144.99;100.00;52399.19;5006165;28;20383;-70
2021/08/10 03:37:31;;;;;;;;;;;;;;;-144.99;100.00;52421.59;5007539;28;19980;-71
2021/08/10 03:39:59;;;;;;;;;;;;;;;-144.99;100.00;52378.78;5008620;28;19990;-72
2021/08/10 03:42:25;;;;;;;;;;;;;;;-144.99;100.00;52401.22;5007504;28;20524;-73
2021/08/10 03:44:52;;;;;;;;;;;;;;;-144.99;100.00;52399.19;5010174;28;19978;-75
2021/08/10 03:47:19;;;;;;;;;;;;;;;-144.99;100.00;52368.59;5010160;28;19984;-71
2021/08/10 03:49:47;;;;;;;;;;;;;;;-144.99;100.00;52393.06;5005983;28;20535;-71
2021/08/10 03:52:14;;;;;;;;;;;;;;;-144.99;100.00;52393.06;5006952;28;20355;-70
2021/08/10 03:54:41;;;;;;;;;;;;;;;-144.99;100.00;52407.31;5008130;28;20057;-69
2021/08/10 03:57:09;;;;;;;;;;;;;;;-144.99;100.00;52395.09;5010174;28;20273;-69
2021/08/10 03:59:36;;;;;;;;;;;;;;;-144.99;100.00;52409.38;5010314;28;20011;-72
2021/08/10 04:02:03;;;;;;;;;;;;;;;-144.99;100.00;52358.41;5011340;28;19996;-72
2021/08/10 04:04:30;;;;;;;;;;;;;;;-144.99;100.00;52399.19;5009663;28;20464;-70
2021/08/10 04:06:58;;;;;;;;;;;;;;;-144.99;100.00;52374.72;5010359;28;19976;-72
2021/08/10 04:09:25;;;;;;;;;;;;;;;-144.99;100.00;52395.09;5010944;28;19997;-71
2021/08/10 04:11:51;;;;;;;;;;;;;;;-144.99;100.00;52391.03;5010382;28;19978;-69
2021/08/10 04:14:19;;;;;;;;;;;;;;;-144.99;100.00;52376.75;5013168;28;20347;-70
2021/08/10 04:16:47;;;;;;;;;;;;;;;-144.99;100.00;52374.72;5013775;28;19997;-69
2021/08/10 04:19:14;;;;;;;;;;;;;;;-144.99;100.00;52374.72;5009629;28;20371;-69
2021/08/10 04:21:41;;;;;;;;;;;;;;;-144.99;100.00;52358.41;5009961;28;19974;-69
2021/08/10 04:24:08;;;;;;;;;;;;;;;-144.99;100.00;52403.25;5009706;28;19973;-69
2021/08/10 04:26:36;;;;;;;;;;;;;;;-144.99;100.00;52393.06;5010144;28;19983;-70
2021/08/10 04:29:03;;;;;;;;;;;;;;;-144.99;100.00;52378.78;5010320;28;20000;-70
2021/08/10 04:31:29;;;;;;;;;;;;;;;-144.99;100.00;52382.88;5010790;28;19993;-69
2021/08/10 04:33:55;;;;;;;;;;;;;;;-144.99;100.00;52370.63;5008058;28;19989;-69
2021/08/10 04:36:22;;;;;;;;;;;;;;;-144.99;100.00;52362.50;5010584;28;19989;-71
2021/08/10 04:38:48;;;;;;;;;;;;;;;-144.99;100.00;52382.88;5010922;28;19998;-69
2021/08/10 04:41:16;;;;;;;;;;;;;;;-144.99;100.00;52350.25;5011513;28;19974;-71
2021/08/10 04:43:42;;;;;;;;;;;;;;;-144.99;100.00;52368.59;5008620;28;20359;-71
2021/08/10 04:46:09;;;;;;;;;;;;;;;-144.99;100.00;52376.75;5008803;28;20383;-69
2021/08/10 04:48:35;;;;;;;;;;;;;;;-144.99;100.00;52378.78;5008065;28;20370;-69
2021/08/10 04:51:01;;;;;;;;;;;;;;;-144.99;100.00;52378.78;5007999;28;19986;-69
2021/08/10 04:53:28;;;;;;;;;;;;;;;-144.99;100.00;52354.34;5008363;28;20460;-71
2021/08/10 04:55:54;;;;;;;;;;;;;;;-144.99;100.00;52362.50;5012786;28;20273;-69
2021/08/10 04:58:22;;;;;;;;;;;;;;;-144.99;100.00;52382.88;5008683;28;19978;-70
2021/08/10 05:00:50;;;;;;;;;;;;;;;-144.99;100.00;52366.56;5008168;28;19982;-69
2021/08/10 05:03:17;;;;;;;;;;;;;;;-144.99;100.00;52346.19;5008245;28;20236;-68
2021/08/10 05:05:43;;;;;;;;;;;;;;;-144.99;100.00;52376.75;5009815;28;19974;-69
2021/08/10 05:08:09;;;;;;;;;;;;;;;-144.99;100.00;52380.84;5007800;28;20000;-69
2021/08/10 05:10:36;;;;;;;;;;;;;;;-144.99;100.00;52356.38;5008084;28;20024;-69
2021/08/10 05:13:02;;;;;;;;;;;;;;;-144.99;100.00;52354.34;5007938;28;20386;-68
2021/08/10 05:15:30;;;;;;;;;;;;;;;-144.99;100.00;52391.03;5007238;28;20349;-69
2021/08/10 05:17:56;;;;;;;;;;;;;;;-144.99;100.00;52370.63;5007587;28;20379;-68
2021/08/10 05:20:22;;;;;;;;;;;;;;;-144.99;100.00;52376.75;5006447;28;20012;-68
2021/08/10 05:22:49;;;;;;;;;;;;;;;-144.99;100.00;52362.50;5009688;28;19963;-68
2021/08/10 05:25:15;;;;;;;;;;;;;;;-144.99;100.00;52342.09;5013238;28;20440;-70
2021/08/10 05:27:41;;;;;;;;;;;;;;;-144.99;100.00;52350.25;5007806;28;19982;-70
2021/08/10 05:30:08;;;;;;;;;;;;;;;-144.99;100.00;52350.25;5004598;28;19993;-70
2021/08/10 05:32:36;;;;;;;;;;;;;;;-144.99;100.00;52374.72;5010860;28;19989;-71
2021/08/10 05:35:03;;;;;;;;;;;;;;;-144.99;100.00;52362.50;5008340;28;19984;-70
2021/08/10 05:37:29;;;;;;;;;;;;;;;-144.99;100.00;52358.41;5006247;28;19994;-70
2021/08/10 05:39:55;;;;;;;;;;;;;;;-144.99;100.00;52358.41;5008426;28;20364;-70
2021/08/10 05:42:22;;;;;;;;;;;;;;;-144.99;100.00;52354.34;5008684;28;19980;-71
2021/08/10 05:44:48;;;;;;;;;;;;;;;-144.99;100.00;52366.56;5010807;28;19982;-68
2021/08/10 05:47:14;;;;;;;;;;;;;;;-144.99;100.00;52342.09;5007052;28;19974;-69
2021/08/10 05:49:42;;;;;;;;;;;;;;;-144.99;100.00;52378.78;5007100;28;19994;-67
2021/08/10 05:52:09;;;;;;;;;;;;;;;-144.99;100.00;52354.34;5005769;28;20391;-66
2021/08/10 05:54:35;;;;;;;;;;;;;;;-144.99;100.00;52358.41;5008264;28;20039;-66
2021/08/10 05:57:02;;;;;;;;;;;;;;;-144.99;100.00;52388.97;5007304;28;20013;-66
2021/08/10 05:59:29;;;;;;;;;;;;;;;-144.99;100.00;52382.88;5007098;28;19998;-70
2021/08/10 06:01:56;;;;;;;;;;;;;;;-144.99;100.00;52348.22;5006890;28;20305;-69
2021/08/10 06:04:22;;;;;;;;;;;;;;;-144.99;100.00;52350.25;5007562;28;19981;-73
2021/08/10 06:06:50;;;;;;;;;;;;;;;-144.99;100.00;52386.94;5007041;28;20000;-72
2021/08/10 06:09:16;;;;;;;;;;;;;;;-144.99;100.00;52342.09;5006703;28;20441;-73
2021/08/10 06:11:42;;;;;;;;;;;;;;;-144.99;100.00;52391.03;5006858;28;19982;-76
2021/08/10 06:14:09;;;;;;;;;;;;;;;-144.99;100.00;52338.03;5006918;28;19974;-71
2021/08/10 06:16:35;;;;;;;;;;;;;;;-144.99;100.00;52395.09;5008077;28;19990;-71
2021/08/10 06:19:02;;;;;;;;;;;;;;;-144.99;100.00;52350.25;5007023;28;19990;-71
2021/08/10 06:21:29;;;;;;;;;;;;;;;-144.99;100.00;52352.28;5007174;28;20448;-69
2021/08/10 06:23:57;;;;;;;;;;;;;;;-144.99;100.00;52366.56;5007265;28;20343;-72
2021/08/10 06:26:23;;;;;;;;;;;;;;;-144.99;100.00;52333.94;5007771;28;20016;-70
2021/08/10 06:28:50;;;;;;;;;;;;;;;-144.99;100.00;52346.19;5006944;28;20662;-71
2021/08/10 06:31:16;;;;;;;;;;;;;;;-144.99;100.00;52362.50;5005976;28;20386;-69
2021/08/10 06:33:42;;;;;;;;;;;;;;;-144.99;100.00;52374.72;5007673;28;19941;-70
2021/08/10 06:36:09;;;;;;;;;;;;;;;-144.99;100.00;52360.44;5007889;28;19981;-70
2021/08/10 06:38:35;;;;;;;;;;;;;;;-144.99;100.00;52338.03;5012602;28;19988;-70
2021/08/10 06:41:03;;;;;;;;;;;;;;;-144.99;100.00;52362.50;5013529;28;19960;-70
2021/08/10 06:43:30;;;;;;;;;;;;;;;-144.99;100.00;52354.34;5018297;28;19995;-70
2021/08/10 06:45:56;;;;;;;;;;;;;;;-144.99;100.00;52340.06;5015342;28;20390;-71
2021/08/10 06:48:23;;;;;;;;;;;;;;;-144.99;100.00;52388.97;5013629;28;20331;-71
2021/08/10 06:50:49;;;;;;;;;;;;;;;-144.99;100.00;52362.50;5016854;28;20351;-70
2021/08/10 06:53:17;;;;;;;;;;;;;;;-144.99;100.00;52350.25;5016065;28;20410;-70
2021/08/10 06:55:43;;;;;;;;;;;;;;;-144.99;100.00;52344.16;5016652;28;19980;-69
2021/08/10 06:58:11;;;;;;;;;;;;;;;-144.99;100.00;52364.53;5014284;28;19989;-66
2021/08/10 07:00:39;;;;;;;;;;;;;;;-144.99;100.00;52391.03;5014175;28;19974;-68
2021/08/10 07:03:05;;;;;;;;;;;;;;;-144.99;100.00;52382.88;5015716;28;20069;-69
2021/08/10 07:05:32;;;;;;;;;;;;;;;-144.99;100.00;52366.56;5015078;28;20028;-70
2021/08/10 07:07:58;;;;;;;;;;;;;;;-144.99;100.00;52342.09;5015120;28;20192;-69
2021/08/10 07:10:25;;;;;;;;;;;;;;;-144.99;100.00;52313.56;5013976;28;19990;-71
2021/08/10 07:12:51;;;;;;;;;;;;;;;-144.99;100.00;52325.81;5018435;28;20436;-71
2021/08/10 07:15:19;;;;;;;;;;;;;;;-144.99;100.00;52321.72;5015625;28;19974;-71
2021/08/10 07:17:45;;;;;;;;;;;;;;;-144.99;100.00;52372.69;5015006;28;20010;-69
2021/08/10 07:20:12;;;;;;;;;;;;;;;-144.99;100.00;52344.16;5014850;28;19997;-69
2021/08/10 07:22:39;;;;;;;;;;;;;;;-144.99;100.00;52372.69;5013676;28;20024;-69
2021/08/10 07:25:05;;;;;;;;;;;;;;;-144.99;100.00;52354.34;5014389;28;20285;-69
2021/08/10 07:30:01;;;;;;;;;;;;;;;-144.99;100.00;52370.63;5025216;28;20001;-63
2021/08/10 07:32:29;;;;;;;;;;;;;;;-144.99;100.00;52374.72;5031891;28;20004;-62
2021/08/10 07:34:55;;;;;;;;;;;;;;;-144.99;100.00;52333.94;5030168;28;19981;-63
2021/08/10 07:37:21;;;;;;;;;;;;;;;-144.99;100.00;52340.06;5030110;28;19985;-63
2021/08/10 07:39:48;;;;;;;;;;;;;;;-144.99;100.00;52325.81;5030647;28;20379;-63
2021/08/10 07:42:14;;;;;;;;;;;;;;;-144.99;100.00;52321.72;5029799;28;20262;-63
2021/08/10 07:44:40;;;;;;;;;;;;;;;-144.99;99.98;52317.66;5031205;28;20293;-63
2021/08/10 07:47:08;;;;;;;;;;;;;;;-144.99;99.49;52331.91;5032515;28;19978;-63
2021/08/10 07:49:36;;;;;;;;;;;;;;;-144.99;97.79;52283.00;5027221;28;20463;-63
2021/08/10 07:52:02;;;;;;;;;;;;;;;-144.99;97.07;52325.81;5026961;28;19981;-63
2021/08/10 07:54:29;;;;;;;;;;;;;;;-144.99;96.83;52260.56;5028158;28;19945;-63
2021/08/10 07:56:56;;;;;;;;;;;;;;;-144.99;96.02;52301.34;5028332;28;19997;-63
2021/08/10 07:59:22;;;;;;;;;;;;;;;-144.99;95.65;52317.66;5028200;28;19992;-63
2021/08/10 08:01:49;;;;;;;;;;;;;;;-144.99;96.19;52321.72;5028354;28;19977;-61
2021/08/10 08:04:15;;;;;;;;;;;;;;;-144.99;96.01;52297.25;5027706;28;19984;-62
2021/08/10 08:06:43;;;;;;;;;;;;;;;-144.99;95.58;52313.56;5027527;28;20235;-63
2021/08/10 08:09:09;;;;;;;;;;;;;;;-144.99;95.58;52309.50;5027369;28;20005;-62
2021/08/10 08:11:35;;;;;;;;;;;;;;;-144.99;93.87;52293.19;5026692;28;20027;-61
2021/08/10 08:14:02;;;;;;;;;;;;;;;-144.99;93.07;52317.66;5025957;28;20414;-62
2021/08/10 08:16:28;;;;;;;;;;;;;;;-144.99;93.48;52321.72;5030149;28;20431;-62
2021/08/10 08:18:54;;;;;;;;;;;;;;;-144.99;94.76;52303.38;5033554;28;20425;-62
2021/08/10 08:21:21;;;;;;;;;;;;;;;-144.99;95.26;52325.81;5030762;28;19978;-63
2021/08/10 08:23:49;;;;;;;;;;;;;;;-144.99;95.89;52309.50;5032150;28;19981;-62
2021/08/10 08:26:15;;;;;;;;;;;;;;;-144.99;95.54;52338.03;5020936;28;19978;-62
2021/08/10 08:28:41;;;;;;;;;;;;;;;-144.99;93.66;52301.34;5037596;28;20433;-62
2021/08/10 08:31:08;;;;;;;;;;;;;;;-144.99;93.04;52280.97;5030474;28;19983;-61
2021/08/10 08:33:34;;;;;;;;;;;;;;;-144.99;93.59;52268.72;5037021;28;20066;-61
2021/08/10 08:36:02;;;;;;;;;;;;;;;-144.99;93.05;52248.34;5031314;28;20428;-61
2021/08/10 08:38:28;;;;;;;;;;;;;;;-144.99;92.28;52289.13;5030985;28;20040;-61
2021/08/10 08:40:56;;;;;;;;;;;;;;;-144.99;90.65;52297.25;5031291;28;19988;-61
2021/08/10 08:43:23;;;;;;;;;;;;;;;-144.99;89.16;52309.50;5023836;28;19981;-61
2021/08/10 08:45:49;;;;;;;;;;;;;;;-144.99;87.46;52276.88;5039085;28;20410;-62
2021/08/10 08:48:16;;;;;;;;;;;;;;;-144.99;88.00;52301.34;5032791;28;20446;-62
2021/08/10 08:50:44;;;;;;;;;;;;;;;-144.99;87.93;52309.50;5030588;28;19980;-61
2021/08/10 08:53:11;;;;;;;;;;;;;;;-144.99;89.50;52346.19;5030477;28;19985;-62
2021/08/10 08:55:39;;;;;;;;;;;;;;;-144.99;90.27;52333.94;5030717;28;19980;-61
2021/08/10 08:58:06;;;;;;;;;;;;;;;-144.99;90.26;52333.94;5030477;28;19997;-62
2021/08/10 09:00:33;;;;;;;;;;;;;;;-144.99;90.23;52313.56;5030071;28;19987;-62
2021/08/10 09:02:59;;;;;;;;;;;;;;;-144.99;90.32;52293.19;5027665;28;19982;-62
2021/08/10 09:05:25;;;;;;;;;;;;;;;-144.99;88.73;52325.81;5028844;28;20498;-62
2021/08/10 09:07:55;;;;;;;;;;;;;;;-144.99;88.93;52305.41;5040365;28;19984;-62
2021/08/10 09:10:29;;;;;;;;;;;;;;;-144.99;85.31;52246.31;5030895;28;19997;-61
2021/08/10 09:12:57;;;;;;;;;;;;;;;-144.99;84.26;52240.19;5025246;28;19981;-62
2021/08/10 09:15:33;;;;;;;;;;;;;;;-144.99;84.26;52280.97;5026061;28;20076;-62
2021/08/10 09:18:08;;;;;;;;;;;;;;;-144.99;82.82;52256.50;5024474;28;19998;-62
2021/08/10 09:20:34;;;;;;;;;;;;;;;-144.99;81.00;52244.28;5029547;28;20364;-61
2021/08/10 09:23:01;;;;;;;;;;;;;;;-144.99;80.49;52240.19;5027175;28;19980;-61
2021/08/10 09:25:27;;;;;;;;;;;;;;;-144.99;81.59;52211.66;5030348;28;19985;-62
2021/08/10 09:28:02;;;;;;;;;;;;;;;-144.99;77.46;52254.47;5030702;28;20349;-62
2021/08/10 09:30:28;;;;;;;;;;;;;;;-144.99;78.29;52272.81;5035995;28;19991;-62
2021/08/10 09:32:59;;;;;;;;;;;;;;;-144.99;76.54;52276.88;5041823;28;19976;-62
2021/08/10 09:35:29;;;;;;;;;;;;;;;-144.99;77.72;52293.19;5032542;28;20001;-62
2021/08/10 09:38:12;;;;;;;;;;;;;;;-144.99;77.71;52280.97;5034597;28;19996;-62
2021/08/10 09:40:39;;;;;;;;;;;;;;;-144.99;77.83;52327.84;5035654;28;19980;-62
2021/08/10 09:43:19;;;;;;;;;;;;;;;-144.99;78.97;52305.41;5030161;28;20013;-62
2021/08/10 09:45:45;;;;;;;;;;;;;;;-144.99;79.15;52268.72;5029896;28;19990;-62
2021/08/10 09:48:14;;;;;;;;;;;;;;;-144.99;77.00;52305.41;5029431;28;20000;-62
2021/08/10 09:50:41;;;;;;;;;;;;;;;-144.99;76.20;52227.97;5029405;28;19985;-61
2021/08/10 09:53:14;;;;;;;;;;;;;;;-144.99;75.81;52280.97;5029600;28;19980;-61
2021/08/10 09:55:52;;;;;;;;;;;;;;;-144.99;75.62;52313.56;5029565;28;19984;-61
2021/08/10 09:58:18;;;;;;;;;;;;;;;-144.99;74.76;52278.91;5029398;28;19999;-62
2021/08/10 10:00:45;;;;;;;;;;;;;;;-144.99;74.87;52270.78;5030778;28;20378;-62
2021/08/10 10:03:17;;;;;;;;;;;;;;;-144.99;73.77;52219.81;5029550;28;19980;-61
2021/08/10 10:05:44;;;;;;;;;;;;;;;-144.99;71.57;52244.28;5033425;28;19972;-61
2021/08/10 10:08:14;;;;;;;;;;;;;;;-144.99;70.44;52236.13;5032753;28;19984;-63
2021/08/10 10:10:41;;;;;;;;;;;;;;;-144.99;70.50;52248.34;5028793;28;20034;-62
2021/08/10 10:13:09;;;;;;;;;;;;;;;-144.99;69.80;52234.09;5028672;28;19986;-62
2021/08/10 10:15:35;;;;;;;;;;;;;;;-144.99;70.16;52242.22;5025314;28;20108;-62
2021/08/10 10:18:02;;;;;;;;;;;;;;;-144.99;71.85;52289.13;5033608;28;20497;-62
2021/08/10 10:20:30;;;;;;;;;;;;;;;-144.99;70.79;52232.03;5030599;28;19996;-62
2021/08/10 10:22:56;;;;;;;;;;;;;;;-144.99;70.27;52272.81;5039218;28;20446;-62
2021/08/10 10:25:24;;;;;;;;;;;;;;;-144.99;69.17;52238.16;5029122;28;19988;-62
2021/08/10 10:27:51;;;;;;;;;;;;;;;-144.99;68.43;52256.50;5028518;28;20398;-61
2021/08/10 10:30:18;;;;;;;;;;;;;;;-144.99;69.65;52276.88;5027221;28;20412;-63
2021/08/10 10:32:45;;;;;;;;;;;;;;;-144.99;70.41;52321.72;5042184;28;20055;-63
2021/08/10 10:35:12;;;;;;;;;;;;;;;-144.99;71.42;52313.56;5029222;28;20008;-62
2021/08/10 10:37:40;;;;;;;;;;;;;;;-144.99;72.99;52278.91;5028799;28;19983;-62
2021/08/10 10:40:08;;;;;;;;;;;;;;;-144.99;75.22;52313.56;5028996;28;20022;-62
2021/08/10 10:42:35;;;;;;;;;;;;;;;-144.99;78.15;52309.50;5028965;28;19988;-62
2021/08/10 10:45:02;;;;;;;;;;;;;;;-144.99;80.04;52293.19;5028303;28;19984;-62
2021/08/10 10:47:37;;;;;;;;;;;;;;;-144.99;80.21;52313.56;5028289;28;19980;-62
2021/08/10 10:50:19;;;;;;;;;;;;;;;-144.99;81.08;52313.56;5028495;28;20132;-68
2021/08/10 10:53:04;;;;;;;;;;;;;;;-144.99;82.05;52338.03;5029126;28;20503;-68
2021/08/10 10:55:35;;;;;;;;;;;;;;;-144.99;84.24;52336.00;5033742;28;19993;-66
2021/08/10 10:58:01;;;;;;;;;;;;;;;-144.99;87.63;52331.91;5029340;28;20019;-66
2021/08/10 11:00:30;;;;;;;;;;;;;;;-144.99;93.34;52356.38;5028804;28;19998;-66
2021/08/10 11:03:12;;;;;;;;;;;;;;;-144.99;96.45;52370.63;5036946;28;19976;-67
2021/08/10 11:05:39;;;;;;;;;;;;;;;-144.99;97.61;52364.53;5033670;28;19984;-67
2021/08/10 11:08:27;;;;;;;;;;;;;;;-144.99;99.39;52382.88;5028608;28;20354;-68
2021/08/10 11:10:53;;;;;;;;;;;;;;;-144.99;100.00;52366.56;5022743;28;20425;-68
2021/08/10 11:13:39;;;;;;;;;;;;;;;-144.99;100.00;52382.88;5029877;28;19980;-67
2021/08/10 11:16:10;;;;;;;;;;;;;;;-144.99;100.00;52362.50;5032529;28;19985;-68
2021/08/10 11:18:37;;;;;;;;;;;;;;;-144.99;100.00;52370.63;5039460;28;20023;-68
2021/08/10 11:21:23;;;;;;;;;;;;;;;-144.99;100.00;52329.88;5037759;28;20003;-68
2021/08/10 11:23:51;;;;;;;;;;;;;;;-144.99;100.00;52256.50;5017216;28;19985;-68
2021/08/10 11:26:37;;;;;;;;;;;;;;;-144.99;100.00;52329.88;5032686;28;20044;-68
2021/08/10 11:29:04;;;;;;;;;;;;;;;-144.99;100.00;52285.03;5033734;28;20012;-68
2021/08/10 11:31:32;;;;;;;;;;;;;;;-144.99;100.00;52338.03;5037522;28;19982;-69
2021/08/10 11:33:58;;;;;;;;;;;;;;;-144.99;100.00;52333.94;5032672;28;19983;-68
2021/08/10 11:36:25;;;;;;;;;;;;;;;-144.99;97.67;52333.94;5021538;28;20426;-68
2021/08/10 11:39:06;;;;;;;;;;;;;;;-144.99;98.30;52211.66;5029604;28;20364;-69
2021/08/10 11:41:34;;;;;;;;;;;;;;;-144.99;96.66;52170.91;5033026;28;19981;-69
2021/08/10 11:44:01;;;;;;;;;;;;;;;-144.99;90.75;52189.25;5032415;28;20365;-69
2021/08/10 11:46:28;;;;;;;;;;;;;;;-144.99;89.72;52195.34;5023221;28;19986;-69
2021/08/10 11:48:55;;;;;;;;;;;;;;;-144.99;85.35;52156.63;5032438;28;20347;-69
2021/08/10 11:51:23;;;;;;;;;;;;;;;-144.99;83.38;52166.81;5031964;28;20320;-69
2021/08/10 11:53:49;;;;;;;;;;;;;;;-144.99;81.47;52146.44;5028120;28;19987;-69
2021/08/10 11:56:30;;;;;;;;;;;;;;;-144.99;80.29;52134.22;5042955;28;19988;-69
2021/08/10 11:58:57;;;;;;;;;;;;;;;-144.99;84.31;52246.31;5032293;28;19925;-68
2021/08/10 12:01:23;;;;;;;;;;;;;;;-144.99;82.17;52223.88;5032370;28;20061;-69
2021/08/10 12:03:50;;;;;;;;;;;;;;;-144.99;81.48;52268.72;5028420;28;19978;-68
2021/08/10 12:06:16;;;;;;;;;;;;;;;-144.99;81.81;52272.81;5031005;28;20486;-68
2021/08/10 12:08:43;;;;;;;;;;;;;;;-144.99;82.53;52276.88;5038696;28;20000;-69
2021/08/10 12:11:10;;;;;;;;;;;;;;;-144.99;81.45;52276.88;5038646;28;19977;-69
2021/08/10 12:13:38;;;;;;;;;;;;;;;-144.99;81.17;52285.03;5034539;28;19977;-69
2021/08/10 12:16:08;;;;;;;;;;;;;;;-144.99;79.96;52303.38;5024999;28;19978;-69
2021/08/10 12:18:35;;;;;;;;;;;;;;;-144.99;80.57;52301.34;5034494;28;19993;-69
2021/08/10 12:21:02;;;;;;;;;;;;;;;-144.99;83.69;52227.97;5034099;28;20434;-68
2021/08/10 12:23:37;;;;;;;;;;;;;;;-144.99;79.95;52158.66;5023661;28;20008;-68
2021/08/10 12:26:07;;;;;;;;;;;;;;;-144.99;77.37;52240.19;5031138;28;20450;-68